Kilimanjaro International Airport

Airport
ICAO code: 
HTKJ
IATA Code: 
JRO
Summary
ICAO Region: 
AFI
Territory: 
Location: 
Boma Ngombe, Kilimanjaro Region
Serving: 
Arusha
Elevation: 
2932 ft
Coordinates: 
Aerial View: 
3° 25' 45.984" S, 37° 4' 27.984" E
Metar
Observation
HTKJ 281000Z 18007KT 9999 FEW032 FEW033TCU 31/15 Q1013 NOSIG
Station
Kilimanjaro Airport
Date/Time
2022-01-28 10:00:00
Wind direction
180°
Wind speed
07 kts
Lowest cloud amount
few clouds
Temperature
31°C
Dew point
15°C
Humidity
38%
QNH
1013 hPa
Weather condition
n/a

Kilimanjaro International Airport (KIA) (IATA: JRO, ICAO: HTKJ) is an international airport in northern Tanzania that serves the cities of Arusha and Moshi.

Climatology

Subtropical highland climate (Köppen climate classification Cwb)

Runways

Designator Length Width Surface Rops
9/27 3607 45 ASP Yes/Yes
Airport map: 
Aerial View: 

SKYbrary Partners:

Safety knowledge contributed by: